Time,TemperatureF,DewpointF,PressureIn,WindDirection,WindDirectionDegrees,WindSpeedMPH,WindSpeedGustMPH,Humidity,HourlyPrecipIn,Conditions,Clouds,dailyrainin,SoftwareType,DateUTC
2013-05-01 00:00:00,67.8,66.6,29.96,ESE,109,0.0,0.0,96,0.00,,,1.21,Wunderground v.1.15,2013-05-01 04:00:00,
2013-05-01 00:05:00,67.6,66.4,29.96,ESE,109,0.0,0.0,96,0.00,,,0.00,Wunderground v.1.15,2013-05-01 04:05:00,
2013-05-01 00:10:00,67.6,66.4,29.96,ESE,109,0.0,0.0,96,0.00,,,0.00,Wunderground v.1.15,2013-05-01 04:10:00,
2013-05-01 00:15:00,67.6,66.4,29.95,ESE,109,0.0,0.0,96,0.00,,,0.00,Wunderground v.1.15,2013-05-01 04:15:00,
2013-05-01 00:25:00,67.4,66.2,29.95,ESE,109,0.0,0.0,96,0.00,,,0.00,Wunderground v.1.15,2013-05-01 04:25:00,
2013-05-01 00:35:00,67.4,66.2,29.95,ESE,109,0.0,0.0,96,0.00,,,0.00,Wunderground v.1.15,2013-05-01 04:35:00,
2013-05-01 00:40:00,67.4,66.5,29.95,ESE,109,0.0,0.0,97,0.00,,,0.00,Wunderground v.1.15,2013-05-01 04:40:00,
2013-05-01 00:45:00,67.4,66.5,29.95,ESE,109,0.0,0.0,97,0.00,,,0.00,Wunderground v.1.15,2013-05-01 04:45:00,
2013-05-01 00:55:00,67.4,66.5,29.95,ESE,109,0.0,0.0,97,0.00,,,0.00,Wunderground v.1.15,2013-05-01 04:55:00,
2013-05-01 01:05:00,67.4,66.5,29.95,ESE,109,0.0,0.0,97,0.00,,,0.00,Wunderground v.1.15,2013-05-01 05:05:00,
2013-05-01 01:15:00,67.4,66.5,29.94,ESE,109,0.0,0.0,97,0.00,,,0.00,Wunderground v.1.15,2013-05-01 05:15:00,
2013-05-01 01:20:00,67.4,66.5,29.94,ESE,109,0.0,0.0,97,0.00,,,0.00,Wunderground v.1.15,2013-05-01 05:20:00,
2013-05-01 01:30:00,67.6,66.7,29.93,ESE,109,0.0,0.0,97,0.00,,,0.00,Wunderground v.1.15,2013-05-01 05:30:00,
2013-05-01 01:40:00,67.6,66.7,29.93,ESE,109,0.0,0.0,97,0.00,,,0.00,Wunderground v.1.15,2013-05-01 05:40:00,
2013-05-01 01:50:00,67.6,66.7,29.93,ESE,109,0.0,0.0,97,0.00,,,0.00,Wunderground v.1.15,2013-05-01 05:50:00,
2013-05-01 02:00:00,67.6,66.7,29.92,ESE,109,0.0,0.0,97,0.00,,,0.00,Wunderground v.1.15,2013-05-01 06:00:00,
2013-05-01 02:05:00,67.6,66.7,29.92,ESE,109,0.0,0.0,97,0.00,,,0.00,Wunderground v.1.15,2013-05-01 06:05:00,
2013-05-01 02:15:00,67.6,66.7,29.92,ESE,109,0.0,0.0,97,0.00,,,0.00,Wunderground v.1.15,2013-05-01 06:15:00,
2013-05-01 02:20:00,67.6,66.7,29.92,ESE,109,0.0,0.0,97,0.00,,,0.00,Wunderground v.1.15,2013-05-01 06:20:00,
2013-05-01 02:30:00,67.4,66.5,29.92,ESE,109,0.0,0.0,97,0.00,,,0.00,Wunderground v.1.15,2013-05-01 06:30:00,
2013-05-01 02:40:00,67.3,66.4,29.92,ESE,109,0.0,0.0,97,0.00,,,0.00,Wunderground v.1.15,2013-05-01 06:40:00,
2013-05-01 02:50:00,67.3,66.4,29.91,ESE,109,0.0,0.0,97,0.00,,,0.00,Wunderground v.1.15,2013-05-01 06:50:00,
2013-05-01 03:00:00,67.1,66.2,29.91,ESE,109,0.0,0.0,97,0.00,,,0.00,Wunderground v.1.15,2013-05-01 07:00:00,
2013-05-01 03:05:00,67.1,66.2,29.91,ESE,109,0.0,0.0,97,0.00,,,0.00,Wunderground v.1.15,2013-05-01 07:05:00,
2013-05-01 03:15:00,66.9,66.0,29.90,ESE,109,0.0,0.0,97,0.00,,,0.00,Wunderground v.1.15,2013-05-01 07:15:00,
2013-05-01 03:25:00,66.9,66.0,29.90,ESE,109,0.0,0.0,97,0.00,,,0.00,Wunderground v.1.15,2013-05-01 07:25:00,
2013-05-01 03:35:00,67.1,66.2,29.90,ESE,109,0.0,0.0,97,0.00,,,0.00,Wunderground v.1.15,2013-05-01 07:35:00,
2013-05-01 03:40:00,67.1,66.2,29.90,ESE,109,0.0,0.0,97,0.00,,,0.00,Wunderground v.1.15,2013-05-01 07:40:00,
2013-05-01 03:50:00,67.1,66.2,29.90,ESE,109,0.0,0.0,97,0.00,,,0.00,Wunderground v.1.15,2013-05-01 07:50:00,
2013-05-01 04:00:00,67.1,66.2,29.90,ESE,109,0.0,0.0,97,0.00,,,0.00,Wunderground v.1.15,2013-05-01 08:00:00,
2013-05-01 04:05:00,67.1,66.2,29.90,ESE,109,0.0,0.0,97,0.00,,,0.00,Wunderground v.1.15,2013-05-01 08:05:00,
2013-05-01 04:15:00,67.1,66.2,29.89,ESE,109,0.0,0.0,97,0.00,,,0.00,Wunderground v.1.15,2013-05-01 08:15:00,
2013-05-01 04:25:00,67.1,66.2,29.89,ESE,109,0.0,0.0,97,0.00,,,0.00,Wunderground v.1.15,2013-05-01 08:25:00,
2013-05-01 04:35:00,67.1,66.2,29.90,ESE,109,0.0,0.0,97,0.00,,,0.00,Wunderground v.1.15,2013-05-01 08:35:00,
2013-05-01 04:45:00,66.9,66.0,29.90,ESE,109,0.0,0.0,97,0.00,,,0.00,Wunderground v.1.15,2013-05-01 08:45:00,
2013-05-01 04:55:00,66.9,66.0,29.90,ESE,109,0.0,0.0,97,0.00,,,0.00,Wunderground v.1.15,2013-05-01 08:55:00,
2013-05-01 05:05:00,66.8,65.9,29.90,ESE,109,0.0,0.0,97,0.00,,,0.00,Wunderground v.1.15,2013-05-01 09:05:00,
2013-05-01 05:15:00,66.8,65.9,29.90,ESE,109,0.0,0.0,97,0.00,,,0.00,Wunderground v.1.15,2013-05-01 09:15:00,
2013-05-01 05:20:00,66.8,65.9,29.90,ESE,109,0.0,0.0,97,0.00,,,0.00,Wunderground v.1.15,2013-05-01 09:20:00,
2013-05-01 05:30:00,66.8,65.9,29.91,ESE,109,0.0,0.0,97,0.00,,,0.00,Wunderground v.1.15,2013-05-01 09:30:00,
2013-05-01 05:40:00,66.8,65.9,29.91,ESE,109,0.0,0.0,97,0.00,,,0.00,Wunderground v.1.15,2013-05-01 09:40:00,
2013-05-01 05:50:00,66.8,65.9,29.91,ESE,109,0.0,0.0,97,0.00,,,0.00,Wunderground v.1.15,2013-05-01 09:50:00,
2013-05-01 05:55:00,66.8,65.9,29.91,ESE,109,0.0,0.0,97,0.00,,,0.00,Wunderground v.1.15,2013-05-01 09:55:00,
2013-05-01 06:05:00,66.9,66.0,29.91,ESE,109,0.0,0.0,97,0.00,,,0.00,Wunderground v.1.15,2013-05-01 10:05:00,
2013-05-01 06:15:00,66.9,66.0,29.91,ESE,109,0.0,0.0,97,0.00,,,0.00,Wunderground v.1.15,2013-05-01 10:15:00,
2013-05-01 06:20:00,66.8,65.9,29.91,ESE,109,0.0,0.0,97,0.00,,,0.00,Wunderground v.1.15,2013-05-01 10:20:00,
2013-05-01 06:30:00,66.8,65.9,29.91,ESE,109,0.0,0.0,97,0.00,,,0.00,Wunderground v.1.15,2013-05-01 10:30:00,
2013-05-01 06:40:00,66.9,66.0,29.91,ESE,109,0.0,0.0,97,0.00,,,0.00,Wunderground v.1.15,2013-05-01 10:40:00,
2013-05-01 06:50:00,66.9,66.0,29.91,ESE,109,0.0,0.0,97,0.00,,,0.00,Wunderground v.1.15,2013-05-01 10:50:00,
2013-05-01 07:00:00,67.1,66.2,29.92,ESE,109,0.0,0.0,97,0.00,,,0.00,Wunderground v.1.15,2013-05-01 11:00:00,
2013-05-01 07:05:00,67.1,66.2,29.92,ESE,109,0.0,0.0,97,0.00,,,0.00,Wunderground v.1.15,2013-05-01 11:05:00,
2013-05-01 07:15:00,67.3,66.4,29.93,ESE,109,0.0,0.0,97,0.00,,,0.00,Wunderground v.1.15,2013-05-01 11:15:00,
2013-05-01 07:20:00,67.3,66.4,29.93,ESE,109,0.0,0.0,97,0.00,,,0.00,Wunderground v.1.15,2013-05-01 11:20:00,
2013-05-01 07:30:00,67.4,66.5,29.94,ESE,109,0.0,0.0,97,0.00,,,0.00,Wunderground v.1.15,2013-05-01 11:30:00,
2013-05-01 07:40:00,67.6,66.7,29.94,ESE,109,0.0,0.0,97,0.00,,,0.00,Wunderground v.1.15,2013-05-01 11:40:00,
2013-05-01 07:50:00,67.8,66.9,29.94,ESE,109,0.0,0.0,97,0.00,,,0.00,Wunderground v.1.15,2013-05-01 11:50:00,
2013-05-01 08:00:00,67.8,66.9,29.94,ESE,109,0.0,0.0,97,0.00,,,0.00,Wunderground v.1.15,2013-05-01 12:00:00,
2013-05-01 08:05:00,67.8,66.9,29.94,ESE,108,0.0,0.0,97,0.00,,,0.00,Wunderground v.1.15,2013-05-01 12:05:00,
2013-05-01 08:15:00,67.8,66.9,29.95,ESE,115,0.0,0.0,97,0.00,,,0.00,Wunderground v.1.15,2013-05-01 12:15:00,
2013-05-01 08:25:00,67.8,66.9,29.95,ESE,114,0.0,0.0,97,0.00,,,0.00,Wunderground v.1.15,2013-05-01 12:25:00,
2013-05-01 08:35:00,67.8,66.9,29.95,ESE,114,0.0,1.0,97,0.00,,,0.00,Wunderground v.1.15,2013-05-01 12:35:00,
2013-05-01 08:45:00,68.1,67.2,29.95,NE,53,0.0,0.0,97,0.00,,,0.00,Wunderground v.1.15,2013-05-01 12:45:00,
2013-05-01 08:55:00,68.4,67.5,29.95,NNE,27,0.0,0.0,97,0.00,,,0.00,Wunderground v.1.15,2013-05-01 12:55:00,
2013-05-01 09:05:00,68.8,67.9,29.94,SE,125,1.0,1.0,97,0.00,,,0.00,Wunderground v.1.15,2013-05-01 13:05:00,
2013-05-01 09:15:00,69.3,68.4,29.95,East,97,1.0,1.0,97,0.00,,,0.00,Wunderground v.1.15,2013-05-01 13:15:00,
2013-05-01 09:20:00,69.4,68.5,29.95,ESE,121,0.0,0.0,97,0.00,,,0.00,Wunderground v.1.15,2013-05-01 13:20:00,
2013-05-01 09:30:00,69.8,68.9,29.95,East,101,0.0,0.0,97,0.00,,,0.00,Wunderground v.1.15,2013-05-01 13:30:00,
2013-05-01 09:35:00,70.1,69.2,29.95,NE,45,1.0,4.0,97,0.00,,,0.00,Wunderground v.1.15,2013-05-01 13:35:00,
2013-05-01 09:45:00,70.4,69.2,29.95,NNE,22,0.0,1.0,96,0.00,,,0.00,Wunderground v.1.15,2013-05-01 13:45:00,
2013-05-01 09:55:00,70.8,69.6,29.95,ENE,71,1.0,4.0,96,0.00,,,0.00,Wunderground v.1.15,2013-05-01 13:55:00,
2013-05-01 10:05:00,71.1,69.6,29.96,ESE,108,0.0,1.0,95,0.00,,,0.00,Wunderground v.1.15,2013-05-01 14:05:00,
2013-05-01 10:15:00,71.5,69.7,29.97,East,93,0.0,0.0,94,0.00,,,0.00,Wunderground v.1.15,2013-05-01 14:15:00,
2013-05-01 10:20:00,71.5,69.4,29.97,East,89,0.0,0.0,93,0.00,,,0.00,Wunderground v.1.15,2013-05-01 14:20:00,
2013-05-01 10:30:00,72.0,69.9,29.97,ESE,111,0.0,0.0,93,0.00,,,0.00,Wunderground v.1.15,2013-05-01 14:30:00,
2013-05-01 10:40:00,72.3,69.5,29.97,East,98,0.0,0.0,91,0.00,,,0.00,Wunderground v.1.15,2013-05-01 14:40:00,
2013-05-01 10:50:00,72.5,69.4,29.97,ESE,109,0.0,1.0,90,0.00,,,0.00,Wunderground v.1.15,2013-05-01 14:50:00,
2013-05-01 11:00:00,72.8,69.4,29.97,ESE,109,0.0,0.0,89,0.00,,,0.00,Wunderground v.1.15,2013-05-01 15:00:00,
2013-05-01 11:05:00,72.8,69.0,29.97,East,94,0.0,0.0,88,0.00,,,0.00,Wunderground v.1.15,2013-05-01 15:05:00,
2013-05-01 11:15:00,73.0,69.2,29.98,ESE,109,0.0,0.0,88,0.00,,,0.00,Wunderground v.1.15,2013-05-01 15:15:00,
2013-05-01 11:25:00,73.2,69.1,29.98,SE,126,0.0,0.0,87,0.00,,,0.00,Wunderground v.1.15,2013-05-01 15:25:00,
2013-05-01 11:30:00,73.3,69.2,29.98,East,88,0.0,0.0,87,0.00,,,0.00,Wunderground v.1.15,2013-05-01 15:30:00,
2013-05-01 11:40:00,73.5,69.4,29.98,SE,126,0.0,0.0,87,0.00,,,0.00,Wunderground v.1.15,2013-05-01 15:40:00,
2013-05-01 11:45:00,73.5,69.1,29.98,ENE,62,0.0,0.0,86,0.00,,,0.00,Wunderground v.1.15,2013-05-01 15:45:00,
2013-05-01 11:55:00,74.0,69.2,29.98,SE,125,0.0,0.0,85,0.00,,,0.00,Wunderground v.1.15,2013-05-01 15:55:00,
2013-05-01 12:05:00,74.6,69.4,29.98,NE,56,0.0,2.0,84,0.00,,,0.00,Wunderground v.1.15,2013-05-01 16:05:00,
2013-05-01 12:15:00,74.9,69.0,29.97,ENE,70,0.0,0.0,82,0.00,,,0.00,Wunderground v.1.15,2013-05-01 16:15:00,
2013-05-01 12:20:00,75.1,69.2,29.97,East,92,0.0,1.0,82,0.00,,,0.00,Wunderground v.1.15,2013-05-01 16:20:00,
2013-05-01 12:30:00,75.3,68.7,29.97,East,88,0.0,0.0,80,0.00,,,0.00,Wunderground v.1.15,2013-05-01 16:30:00,
2013-05-01 12:40:00,75.4,68.8,29.97,East,98,0.0,1.0,80,0.00,,,0.00,Wunderground v.1.15,2013-05-01 16:40:00,
2013-05-01 12:50:00,76.0,69.0,29.97,ESE,115,0.0,0.0,79,0.00,,,0.00,Wunderground v.1.15,2013-05-01 16:50:00,
2013-05-01 13:00:00,76.3,68.9,29.96,ESE,113,0.0,0.0,78,0.00,,,0.00,Wunderground v.1.15,2013-05-01 17:00:00,
2013-05-01 13:05:00,76.3,68.6,29.96,ESE,113,0.0,1.0,77,0.00,,,0.00,Wunderground v.1.15,2013-05-01 17:05:00,
2013-05-01 13:15:00,76.5,68.0,29.95,NE,47,0.0,0.0,75,0.00,,,0.00,Wunderground v.1.15,2013-05-01 17:15:00,
2013-05-01 13:20:00,76.7,68.2,29.95,East,92,0.0,0.0,75,0.00,,,0.00,Wunderground v.1.15,2013-05-01 17:20:00,
2013-05-01 13:30:00,77.2,67.5,29.95,East,84,0.0,1.0,72,0.00,,,0.00,Wunderground v.1.15,2013-05-01 17:30:00,
2013-05-01 13:40:00,77.4,66.8,29.95,ESE,111,1.0,1.0,70,0.00,,,0.00,Wunderground v.1.15,2013-05-01 17:40:00,
2013-05-01 13:50:00,77.7,66.7,29.95,East,86,0.0,1.0,69,0.00,,,0.00,Wunderground v.1.15,2013-05-01 17:50:00,
2013-05-01 14:00:00,77.9,66.9,29.94,ESE,109,0.0,0.0,69,0.00,,,0.00,Wunderground v.1.15,2013-05-01 18:00:00,
2013-05-01 14:05:00,78.1,66.7,29.94,ESE,109,0.0,1.0,68,0.00,,,0.00,Wunderground v.1.15,2013-05-01 18:05:00,
2013-05-01 14:15:00,78.3,66.9,29.94,NE,42,1.0,1.0,68,0.00,,,0.00,Wunderground v.1.15,2013-05-01 18:15:00,
2013-05-01 14:25:00,78.5,66.6,29.94,East,92,1.0,1.0,67,0.00,,,0.00,Wunderground v.1.15,2013-05-01 18:25:00,
2013-05-01 14:35:00,78.5,65.8,29.93,East,85,1.0,1.0,65,0.00,,,0.00,Wunderground v.1.15,2013-05-01 18:35:00,
2013-05-01 14:45:00,78.5,65.3,29.93,ESE,105,1.0,3.0,64,0.00,,,0.00,Wunderground v.1.15,2013-05-01 18:45:00,
2013-05-01 14:55:00,78.6,65.4,29.93,ESE,106,1.0,1.0,64,0.00,,,0.00,Wunderground v.1.15,2013-05-01 18:55:00,
2013-05-01 15:05:00,78.5,65.8,29.92,ENE,69,1.0,2.0,65,0.00,,,0.00,Wunderground v.1.15,2013-05-01 19:05:00,
2013-05-01 15:15:00,78.1,64.9,29.92,ENE,61,1.0,1.0,64,0.00,,,0.00,Wunderground v.1.15,2013-05-01 19:15:00,
2013-05-01 15:20:00,78.1,64.9,29.92,ESE,117,1.0,1.0,64,0.00,,,0.00,Wunderground v.1.15,2013-05-01 19:20:00,
2013-05-01 15:25:00,78.1,64.9,29.92,East,88,1.0,1.0,64,0.00,,,0.00,Wunderground v.1.15,2013-05-01 19:25:00,
2013-05-01 15:35:00,78.3,65.1,29.92,ESE,117,0.0,1.0,64,0.00,,,0.00,Wunderground v.1.15,2013-05-01 19:35:00,
2013-05-01 15:45:00,78.1,64.5,29.91,NE,55,0.0,0.0,63,0.00,,,0.00,Wunderground v.1.15,2013-05-01 19:45:00,
2013-05-01 15:50:00,77.9,64.3,29.91,NE,39,0.0,0.0,63,0.00,,,0.00,Wunderground v.1.15,2013-05-01 19:50:00,
2013-05-01 16:00:00,77.9,64.7,29.91,ESE,108,0.0,0.0,64,0.00,,,0.00,Wunderground v.1.15,2013-05-01 20:00:00,
2013-05-01 16:05:00,77.9,65.6,29.91,NNE,26,0.0,0.0,66,0.00,,,0.00,Wunderground v.1.15,2013-05-01 20:05:00,
2013-05-01 16:15:00,77.6,66.2,29.91,ESE,106,1.0,1.0,68,0.00,,,0.00,Wunderground v.1.15,2013-05-01 20:15:00,
2013-05-01 16:20:00,77.4,66.4,29.91,NNE,22,0.0,0.0,69,0.00,,,0.00,Wunderground v.1.15,2013-05-01 20:20:00,
2013-05-01 16:30:00,77.4,66.4,29.90,North,10,1.0,1.0,69,0.00,,,0.00,Wunderground v.1.15,2013-05-01 20:30:00,
2013-05-01 16:40:00,77.4,66.4,29.90,East,84,0.0,0.0,69,0.00,,,0.00,Wunderground v.1.15,2013-05-01 20:40:00,
2013-05-01 16:50:00,77.4,66.4,29.91,SE,137,0.0,0.0,69,0.00,,,0.00,Wunderground v.1.15,2013-05-01 20:50:00,
2013-05-01 17:00:00,77.2,66.2,29.91,ENE,78,0.0,0.0,69,0.00,,,0.00,Wunderground v.1.15,2013-05-01 21:00:00,
2013-05-01 17:05:00,77.2,66.2,29.91,ESE,103,0.0,1.0,69,0.00,,,0.00,Wunderground v.1.15,2013-05-01 21:05:00,
2013-05-01 17:15:00,77.0,66.5,29.92,ENE,67,0.0,1.0,70,0.00,,,0.00,Wunderground v.1.15,2013-05-01 21:15:00,
2013-05-01 17:25:00,76.5,66.4,29.92,East,84,0.0,0.0,71,0.00,,,0.00,Wunderground v.1.15,2013-05-01 21:25:00,
2013-05-01 17:35:00,76.0,66.7,29.92,East,84,0.0,1.0,73,0.00,,,0.00,Wunderground v.1.15,2013-05-01 21:35:00,
2013-05-01 17:45:00,75.8,66.5,29.92,East,93,0.0,1.0,73,0.00,,,0.00,Wunderground v.1.15,2013-05-01 21:45:00,
2013-05-01 17:55:00,76.0,66.7,29.92,SE,132,0.0,1.0,73,0.00,,,0.00,Wunderground v.1.15,2013-05-01 21:55:00,
2013-05-01 18:05:00,75.6,67.5,29.92,NE,55,1.0,1.0,76,0.00,,,0.00,Wunderground v.1.15,2013-05-01 22:05:00,
2013-05-01 18:15:00,74.6,68.7,29.93,ESE,105,0.0,1.0,82,0.00,,,0.01,Wunderground v.1.15,2013-05-01 22:15:00,
2013-05-01 18:20:00,74.0,68.9,29.93,ESE,105,0.0,0.0,84,0.07,,,0.02,Wunderground v.1.15,2013-05-01 22:20:00,
2013-05-01 18:25:00,73.7,69.2,29.93,ESE,105,0.0,0.0,86,0.06,,,0.02,Wunderground v.1.15,2013-05-01 22:25:00,
2013-05-01 18:35:00,73.2,69.1,29.92,ESE,108,0.0,0.0,87,0.00,,,0.02,Wunderground v.1.15,2013-05-01 22:35:00,
2013-05-01 18:45:00,73.0,68.9,29.92,ENE,65,0.0,0.0,87,0.00,,,0.02,Wunderground v.1.15,2013-05-01 22:45:00,
2013-05-01 18:55:00,72.8,68.7,29.92,ENE,67,0.0,0.0,87,0.00,,,0.02,Wunderground v.1.15,2013-05-01 22:55:00,
2013-05-01 19:05:00,72.7,68.6,29.93,ENE,75,0.0,1.0,87,0.00,,,0.03,Wunderground v.1.15,2013-05-01 23:05:00,
2013-05-01 19:15:00,72.7,68.6,29.93,NE,52,1.0,4.0,87,0.00,,,0.03,Wunderground v.1.15,2013-05-01 23:15:00,
2013-05-01 19:20:00,72.5,68.4,29.93,NE,40,1.0,1.0,87,0.00,,,0.03,Wunderground v.1.15,2013-05-01 23:20:00,
2013-05-01 19:30:00,72.3,68.5,29.93,East,82,1.0,1.0,88,0.00,,,0.03,Wunderground v.1.15,2013-05-01 23:30:00,
2013-05-01 19:40:00,72.1,68.3,29.93,ENE,76,1.0,1.0,88,0.00,,,0.03,Wunderground v.1.15,2013-05-01 23:40:00,
2013-05-01 19:45:00,72.1,68.3,29.93,NE,43,1.0,1.0,88,0.00,,,0.03,Wunderground v.1.15,2013-05-01 23:45:00,
2013-05-01 19:55:00,71.8,68.4,29.93,East,84,0.0,3.0,89,0.00,,,0.03,Wunderground v.1.15,2013-05-01 23:55:00,
2013-05-01 20:05:00,71.5,68.4,29.93,ESE,122,1.0,1.0,90,0.00,,,0.03,Wunderground v.1.15,2013-05-02 00:05:00,
2013-05-01 20:15:00,71.3,68.5,29.93,ESE,102,0.0,1.0,91,0.00,,,0.03,Wunderground v.1.15,2013-05-02 00:15:00,
2013-05-01 20:20:00,70.9,68.1,29.93,East,94,1.0,1.0,91,0.00,,,0.03,Wunderground v.1.15,2013-05-02 00:20:00,
2013-05-01 20:30:00,70.6,67.8,29.93,NE,51,0.0,0.0,91,0.00,,,0.03,Wunderground v.1.15,2013-05-02 00:30:00,
2013-05-01 20:40:00,70.4,67.6,29.93,NNE,28,1.0,1.0,91,0.00,,,0.03,Wunderground v.1.15,2013-05-02 00:40:00,
2013-05-01 20:50:00,70.1,67.3,29.93,NNE,14,1.0,2.0,91,0.00,,,0.03,Wunderground v.1.15,2013-05-02 00:50:00,
2013-05-01 21:00:00,69.9,67.2,29.93,NNE,24,1.0,1.0,91,0.00,,,0.03,Wunderground v.1.15,2013-05-02 01:00:00,
2013-05-01 21:05:00,69.8,67.1,29.93,NE,53,0.0,1.0,91,0.00,,,0.03,Wunderground v.1.15,2013-05-02 01:05:00,
2013-05-01 21:15:00,69.8,67.1,29.94,NE,53,0.0,1.0,91,0.00,,,0.03,Wunderground v.1.15,2013-05-02 01:15:00,
2013-05-01 21:30:00,69.6,67.2,29.95,NNE,26,0.0,1.0,92,0.00,,,0.03,Wunderground v.1.15,2013-05-02 01:30:00,
2013-05-01 21:40:00,69.6,66.9,29.95,North,355,0.0,2.0,91,0.00,,,0.03,Wunderground v.1.15,2013-05-02 01:40:00,
2013-05-01 21:50:00,69.4,66.7,29.94,East,90,1.0,1.0,91,0.00,,,0.03,Wunderground v.1.15,2013-05-02 01:50:00,
2013-05-01 22:00:00,69.4,66.7,29.95,NNE,27,0.0,0.0,91,0.00,,,0.03,Wunderground v.1.15,2013-05-02 02:00:00,
2013-05-01 22:05:00,69.4,66.7,29.95,NNE,22,0.0,0.0,91,0.00,,,0.03,Wunderground v.1.15,2013-05-02 02:05:00,
2013-05-01 22:15:00,69.3,66.6,29.95,ENE,60,0.0,1.0,91,0.00,,,0.03,Wunderground v.1.15,2013-05-02 02:15:00,
2013-05-01 22:25:00,69.3,66.6,29.95,North,360,0.0,0.0,91,0.00,,,0.03,Wunderground v.1.15,2013-05-02 02:25:00,
2013-05-01 22:35:00,69.1,66.4,29.95,East,90,1.0,2.0,91,0.00,,,0.03,Wunderground v.1.15,2013-05-02 02:35:00,
2013-05-01 22:45:00,69.1,66.4,29.95,ENE,69,0.0,0.0,91,0.00,,,0.03,Wunderground v.1.15,2013-05-02 02:45:00,
2013-05-01 22:55:00,68.9,66.2,29.95,NNE,13,0.0,0.0,91,0.00,,,0.03,Wunderground v.1.15,2013-05-02 02:55:00,
2013-05-01 23:05:00,68.9,66.2,29.95,NNE,32,0.0,1.0,91,0.00,,,0.03,Wunderground v.1.15,2013-05-02 03:05:00,
2013-05-01 23:15:00,68.8,66.1,29.95,NNE,23,0.0,1.0,91,0.00,,,0.03,Wunderground v.1.15,2013-05-02 03:15:00,
2013-05-01 23:20:00,68.6,65.9,29.95,East,86,0.0,0.0,91,0.00,,,0.03,Wunderground v.1.15,2013-05-02 03:20:00,
2013-05-01 23:30:00,68.4,66.0,29.94,North,9,0.0,3.0,92,0.00,,,0.03,Wunderground v.1.15,2013-05-02 03:30:00,
2013-05-01 23:40:00,68.3,65.9,29.94,ESE,111,1.0,1.0,92,0.00,,,0.03,Wunderground v.1.15,2013-05-02 03:40:00,
2013-05-01 23:50:00,68.3,65.9,29.94,ENE,71,0.0,0.0,92,0.00,,,0.03,Wunderground v.1.15,2013-05-02 03:50:00,